Time;durP1;ratioP1;P1;durP2;ratioP2;P2;SDS_P1;SDS_P2;PMS_P1;PMS_P2;Temp;Humidity;BMP_temperature;BMP_pressure;BME280_temperature;BME280_humidity;BME280_pressure;Samples;Min_cycle;Max_cycle;Signal;HPM_P1;HPM_P2
2022/01/30 00:02:14;;;;;;;32.92;6.00;;;;;;;;;;6263807;22;20035;-92
2022/01/30 00:04:40;;;;;;;45.03;6.93;;;;;;;;;;6248645;22;20021;-91
2022/01/30 00:10:36;;;;;;;32.95;5.45;;;;;;;;;;6274556;22;20023;-93
2022/01/30 00:13:05;;;;;;;33.60;5.25;;;;;;;;;;6248535;22;20012;-92
2022/01/30 00:27:17;;;;;;;39.95;6.25;;;;;;;;;;6274181;22;20019;-93
2022/01/30 00:29:44;;;;;;;46.05;6.50;;;;;;;;;;6248907;22;20027;-92
2022/01/30 00:32:52;;;;;;;39.22;6.63;;;;;;;;;;6249044;22;20028;-92
2022/01/30 00:35:37;;;;;;;48.17;7.43;;;;;;;;;;6251904;22;20035;-93
2022/01/30 00:58:17;;;;;;;40.45;6.03;;;;;;;;;;6276160;22;20054;-94
2022/01/30 01:00:44;;;;;;;35.55;5.85;;;;;;;;;;6248975;23;20008;-94
2022/01/30 01:03:37;;;;;;;30.55;5.43;;;;;;;;;;6249570;22;20022;-93
2022/01/30 01:06:05;;;;;;;37.95;5.70;;;;;;;;;;6247353;22;20020;-93
2022/01/30 01:08:48;;;;;;;47.67;6.05;;;;;;;;;;6250549;22;20079;-93
2022/01/30 01:23:19;;;;;;;40.22;5.78;;;;;;;;;;6226115;22;20060;-92
2022/01/30 01:27:39;;;;;;;42.33;6.00;;;;;;;;;;6275723;22;20003;-94
2022/01/30 01:30:06;;;;;;;35.42;5.45;;;;;;;;;;6249396;22;20023;-93
2022/01/30 01:32:32;;;;;;;38.88;5.47;;;;;;;;;;6249517;22;20026;-94
2022/01/30 01:35:00;;;;;;;32.90;4.60;;;;;;;;;;6249641;22;20024;-94
2022/01/30 01:37:40;;;;;;;42.40;6.20;;;;;;;;;;6249530;22;20060;-94
2022/01/30 01:40:07;;;;;;;37.05;5.40;;;;;;;;;;6249237;22;20012;-94
2022/01/30 01:42:35;;;;;;;51.85;5.70;;;;;;;;;;6275003;22;20004;-94
2022/01/30 01:45:07;;;;;;;41.97;5.95;;;;;;;;;;6249141;22;20031;-94
2022/01/30 01:47:34;;;;;;;34.08;5.07;;;;;;;;;;6249366;22;20016;-93
2022/01/30 01:50:01;;;;;;;43.70;5.97;;;;;;;;;;6247936;22;20030;-95
2022/01/30 01:52:38;;;;;;;35.70;5.18;;;;;;;;;;6248403;22;20020;-94
2022/01/30 01:55:05;;;;;;;41.13;6.50;;;;;;;;;;6248774;22;20020;-94
2022/01/30 01:57:32;;;;;;;36.78;6.20;;;;;;;;;;6248983;22;20023;-93
2022/01/30 02:00:18;;;;;;;53.55;6.80;;;;;;;;;;6249268;22;20026;-94
2022/01/30 02:02:45;;;;;;;45.63;7.47;;;;;;;;;;6248804;22;20008;-94
2022/01/30 02:05:13;;;;;;;44.05;8.00;;;;;;;;;;6249359;22;20004;-94
2022/01/30 02:27:46;;;;;;;42.95;6.82;;;;;;;;;;6274688;22;20018;-94
2022/01/30 02:30:16;;;;;;;46.53;6.43;;;;;;;;;;6248829;22;20024;-93
2022/01/30 02:32:43;;;;;;;52.38;6.78;;;;;;;;;;6248680;22;20024;-94
2022/01/30 02:35:10;;;;;;;48.00;7.40;;;;;;;;;;6248550;22;20028;-95
2022/01/30 02:41:17;;;;;;;47.25;6.22;;;;;;;;;;6274538;22;20064;-95
2022/01/30 02:43:58;;;;;;;40.25;7.00;;;;;;;;;;6274728;22;20008;-94
2022/01/30 02:46:31;;;;;;;54.92;6.65;;;;;;;;;;6249384;22;20058;-94
2022/01/30 02:55:56;;;;;;;39.30;6.13;;;;;;;;;;6274205;22;20034;-94
2022/01/30 02:58:24;;;;;;;37.35;6.38;;;;;;;;;;6243539;23;20023;-94
2022/01/30 03:00:50;;;;;;;47.38;7.60;;;;;;;;;;6242430;23;20050;-95
2022/01/30 03:03:27;;;;;;;44.22;7.22;;;;;;;;;;6243149;23;20034;-94
2022/01/30 03:05:54;;;;;;;40.03;5.97;;;;;;;;;;6243934;23;20084;-94
2022/01/30 03:08:21;;;;;;;50.30;6.22;;;;;;;;;;6243905;23;20035;-94
2022/01/30 03:10:48;;;;;;;44.00;6.55;;;;;;;;;;6243800;23;20036;-93
2022/01/30 03:13:49;;;;;;;48.22;6.15;;;;;;;;;;6244035;23;20015;-93
2022/01/30 03:16:16;;;;;;;36.58;6.10;;;;;;;;;;6243767;23;20032;-94
2022/01/30 03:18:49;;;;;;;50.50;7.65;;;;;;;;;;6243447;23;20036;-95
2022/01/30 03:21:31;;;;;;;49.05;8.52;;;;;;;;;;6243090;23;20005;-93
2022/01/30 03:23:58;;;;;;;36.95;6.13;;;;;;;;;;6243298;23;20024;-93
2022/01/30 03:26:26;;;;;;;52.17;7.22;;;;;;;;;;6244006;23;20024;-93
2022/01/30 03:28:56;;;;;;;34.90;5.40;;;;;;;;;;6243054;23;20028;-93
2022/01/30 03:31:23;;;;;;;44.22;7.20;;;;;;;;;;6243612;23;20020;-94
2022/01/30 03:33:53;;;;;;;40.25;6.20;;;;;;;;;;6243235;23;20016;-95
2022/01/30 03:39:29;;;;;;;44.75;6.82;;;;;;;;;;6243694;23;20004;-94
2022/01/30 03:41:55;;;;;;;53.50;8.32;;;;;;;;;;6241660;23;20008;-93
2022/01/30 03:44:29;;;;;;;52.42;7.63;;;;;;;;;;6243197;23;20039;-94
2022/01/30 03:46:55;;;;;;;42.90;6.45;;;;;;;;;;6242986;23;20023;-94
2022/01/30 03:49:23;;;;;;;46.03;6.63;;;;;;;;;;6243736;23;20013;-95
2022/01/30 03:58:34;;;;;;;45.05;7.60;;;;;;;;;;6249682;22;20015;-93
2022/01/30 04:01:01;;;;;;;49.70;7.43;;;;;;;;;;6248758;22;20027;-93
2022/01/30 04:03:28;;;;;;;40.80;7.38;;;;;;;;;;6248443;22;20008;-94
2022/01/30 04:05:55;;;;;;;51.90;6.93;;;;;;;;;;6248369;22;20005;-95
2022/01/30 04:08:22;;;;;;;46.50;6.40;;;;;;;;;;6248296;22;20024;-94
2022/01/30 04:10:49;;;;;;;41.75;6.57;;;;;;;;;;6248222;22;20024;-94
2022/01/30 04:13:25;;;;;;;42.75;6.95;;;;;;;;;;6248186;22;20012;-94
2022/01/30 04:15:52;;;;;;;42.38;6.60;;;;;;;;;;6247305;22;20008;-94
2022/01/30 04:18:19;;;;;;;36.67;6.70;;;;;;;;;;6247625;22;20008;-95
2022/01/30 04:20:45;;;;;;;29.27;7.13;;;;;;;;;;6248285;22;20071;-94
2022/01/30 04:23:12;;;;;;;56.85;8.25;;;;;;;;;;6248530;22;20084;-93
2022/01/30 04:25:41;;;;;;;53.50;7.30;;;;;;;;;;6248901;22;20030;-93
2022/01/30 05:08:49;;;;;;;37.35;5.78;;;;;;;;;;6274676;22;20031;-94
2022/01/30 05:11:16;;;;;;;42.42;7.50;;;;;;;;;;6248330;22;20019;-93
2022/01/30 05:13:47;;;;;;;40.72;7.10;;;;;;;;;;6248702;22;20008;-92
2022/01/30 05:16:14;;;;;;;42.20;6.32;;;;;;;;;;6247940;22;20075;-93
2022/01/30 05:22:03;;;;;;;40.80;6.15;;;;;;;;;;6274624;22;20052;-92
2022/01/30 05:24:30;;;;;;;48.05;6.70;;;;;;;;;;6248629;22;20008;-91
2022/01/30 05:26:57;;;;;;;41.97;6.40;;;;;;;;;;6249013;22;20008;-90
2022/01/30 05:29:26;;;;;;;51.47;8.52;;;;;;;;;;6274382;22;20065;-92
2022/01/30 05:31:53;;;;;;;46.03;7.13;;;;;;;;;;6248475;22;20050;-92
2022/01/30 05:34:20;;;;;;;48.22;6.75;;;;;;;;;;6247856;22;20035;-93
2022/01/30 05:36:47;;;;;;;46.95;6.75;;;;;;;;;;6248011;22;20020;-93
2022/01/30 05:39:14;;;;;;;45.92;9.35;;;;;;;;;;6247959;22;20067;-92
2022/01/30 05:41:42;;;;;;;48.45;7.40;;;;;;;;;;6247957;22;20004;-92
2022/01/30 05:44:16;;;;;;;44.45;7.90;;;;;;;;;;6249917;22;20008;-91
2022/01/30 05:46:54;;;;;;;50.38;7.88;;;;;;;;;;6249920;22;20008;-93
2022/01/30 05:49:21;;;;;;;50.00;8.55;;;;;;;;;;6250239;22;20042;-92
2022/01/30 05:51:47;;;;;;;52.53;7.75;;;;;;;;;;6250284;22;20028;-91
2022/01/30 05:54:14;;;;;;;40.97;7.78;;;;;;;;;;6250164;22;20027;-91
2022/01/30 06:00:06;;;;;;;50.20;7.78;;;;;;;;;;6275122;22;20019;-92
2022/01/30 06:02:33;;;;;;;51.03;6.45;;;;;;;;;;6249762;22;20011;-92
2022/01/30 06:05:00;;;;;;;55.13;7.80;;;;;;;;;;6249993;22;20031;-90
2022/01/30 06:07:32;;;;;;;47.95;8.65;;;;;;;;;;6249667;22;20043;-92
2022/01/30 06:09:59;;;;;;;50.92;7.25;;;;;;;;;;6250359;22;20031;-90
2022/01/30 06:12:28;;;;;;;45.20;5.65;;;;;;;;;;6250437;22;20080;-91
2022/01/30 06:25:02;;;;;;;45.63;8.05;;;;;;;;;;6275288;22;20042;-92
2022/01/30 06:27:29;;;;;;;47.75;7.40;;;;;;;;;;6249892;22;20008;-93
2022/01/30 06:29:56;;;;;;;40.75;6.68;;;;;;;;;;6249832;22;20023;-93
2022/01/30 06:32:23;;;;;;;58.83;7.45;;;;;;;;;;6249711;22;20004;-92
2022/01/30 06:41:34;;;;;;;48.42;6.32;;;;;;;;;;6275624;22;20023;-92
2022/01/30 06:44:06;;;;;;;48.78;6.40;;;;;;;;;;6250212;22;20030;-92
2022/01/30 06:46:34;;;;;;;47.03;5.88;;;;;;;;;;6249937;22;20024;-92
2022/01/30 07:06:21;;;;;;;34.13;4.82;;;;;;;;;;6275342;22;20019;-92
2022/01/30 07:08:48;;;;;;;33.70;6.88;;;;;;;;;;6249464;22;20008;-92
2022/01/30 07:11:15;;;;;;;44.88;5.75;;;;;;;;;;6249396;22;20008;-92
2022/01/30 07:13:43;;;;;;;50.20;5.95;;;;;;;;;;6249140;22;20067;-93
2022/01/30 07:16:11;;;;;;;37.92;6.53;;;;;;;;;;6249469;22;20035;-92
2022/01/30 07:18:38;;;;;;;41.50;6.22;;;;;;;;;;6249166;22;20026;-92
2022/01/30 07:31:50;;;;;;;38.45;5.72;;;;;;;;;;6275155;22;20031;-91
2022/01/30 07:34:21;;;;;;;42.25;6.03;;;;;;;;;;6248911;22;20012;-93
2022/01/30 07:40:14;;;;;;;40.33;5.53;;;;;;;;;;6274900;22;20011;-90
2022/01/30 07:42:41;;;;;;;39.90;5.63;;;;;;;;;;6249194;22;20104;-92
2022/01/30 07:45:08;;;;;;;48.58;7.53;;;;;;;;;;6249125;22;20014;-93
2022/01/30 07:47:35;;;;;;;51.03;5.95;;;;;;;;;;6249264;22;20004;-93
2022/01/30 07:50:02;;;;;;;44.28;6.15;;;;;;;;;;6249209;22;20008;-92
2022/01/30 07:52:29;;;;;;;31.85;5.95;;;;;;;;;;6249131;22;20052;-91
2022/01/30 07:54:56;;;;;;;44.10;6.63;;;;;;;;;;6248560;22;20015;-92
2022/01/30 08:01:16;;;;;;;44.35;7.25;;;;;;;;;;6274668;22;19995;-94
2022/01/30 08:03:44;;;;;;;35.15;5.88;;;;;;;;;;6249113;22;20004;-93
2022/01/30 08:06:10;;;;;;;32.60;5.65;;;;;;;;;;6248523;22;20186;-93
2022/01/30 08:08:38;;;;;;;34.70;6.18;;;;;;;;;;6248967;22;20023;-94
2022/01/30 08:11:07;;;;;;;37.63;5.97;;;;;;;;;;6249130;22;20059;-93
2022/01/30 08:13:34;;;;;;;32.20;6.00;;;;;;;;;;6249230;22;20015;-93
2022/01/30 08:16:01;;;;;;;38.03;6.05;;;;;;;;;;6248940;22;20047;-93
2022/01/30 08:18:36;;;;;;;37.50;5.05;;;;;;;;;;6249282;22;20035;-92
2022/01/30 08:21:05;;;;;;;32.08;5.20;;;;;;;;;;6249096;22;20008;-93
2022/01/30 08:23:33;;;;;;;44.97;6.80;;;;;;;;;;6248872;22;20008;-92
2022/01/30 08:26:01;;;;;;;37.92;5.60;;;;;;;;;;6248895;22;20069;-93
2022/01/30 08:28:28;;;;;;;36.70;5.72;;;;;;;;;;6249154;22;20019;-93
2022/01/30 08:30:55;;;;;;;47.15;6.35;;;;;;;;;;6248720;22;20024;-92
2022/01/30 08:33:23;;;;;;;47.50;7.38;;;;;;;;;;6248929;22;20015;-93
2022/01/30 08:35:50;;;;;;;43.88;6.30;;;;;;;;;;6248681;22;20008;-92
2022/01/30 08:38:18;;;;;;;39.17;7.50;;;;;;;;;;6248771;22;20011;-93
2022/01/30 08:40:46;;;;;;;53.90;7.90;;;;;;;;;;6248932;22;20030;-92
2022/01/30 08:43:14;;;;;;;38.50;6.30;;;;;;;;;;6248716;22;20039;-94
2022/01/30 08:45:42;;;;;;;38.08;8.00;;;;;;;;;;6249146;22;20055;-93
2022/01/30 09:05:00;;;;;;;57.92;8.05;;;;;;;;;;6273793;22;20018;-94
2022/01/30 09:07:28;;;;;;;62.45;8.10;;;;;;;;;;6248505;22;20034;-94
2022/01/30 09:09:58;;;;;;;53.95;10.32;;;;;;;;;;6249300;22;20008;-93
2022/01/30 09:36:20;;;;;;;51.90;8.43;;;;;;;;;;6275832;22;20015;-92
2022/01/30 09:39:02;;;;;;;57.50;8.00;;;;;;;;;;6274540;22;20020;-94
2022/01/30 09:41:33;;;;;;;46.22;6.95;;;;;;;;;;6250997;22;20016;-93
2022/01/30 09:44:14;;;;;;;51.72;8.82;;;;;;;;;;6249859;22;20015;-94
2022/01/30 09:50:21;;;;;;;46.28;7.65;;;;;;;;;;6275939;22;20004;-95
2022/01/30 09:53:01;;;;;;;46.22;8.00;;;;;;;;;;6252383;22;20060;-92
2022/01/30 09:55:42;;;;;;;51.03;7.80;;;;;;;;;;6250412;22;20038;-94
2022/01/30 09:58:27;;;;;;;45.42;8.50;;;;;;;;;;6249356;22;20008;-95
2022/01/30 10:01:08;;;;;;;47.88;7.90;;;;;;;;;;6252486;22;20052;-95
2022/01/30 10:24:34;;;;;;;47.38;8.38;;;;;;;;;;6275864;22;20048;-95
2022/01/30 11:00:42;;;;;;;39.42;7.38;;;;;;;;;;6241840;22;20044;-94
2022/01/30 11:03:31;;;;;;;36.00;6.72;;;;;;;;;;6219334;22;20047;-94
2022/01/30 11:23:16;;;;;;;49.58;7.57;;;;;;;;;;6244630;22;20003;-93
2022/01/30 11:25:44;;;;;;;38.75;6.88;;;;;;;;;;6218980;22;20005;-94
2022/01/30 11:28:16;;;;;;;40.97;7.45;;;;;;;;;;6219676;22;20008;-93
2022/01/30 11:30:50;;;;;;;34.05;6.97;;;;;;;;;;6220522;22;20106;-94
2022/01/30 11:40:29;;;;;;;33.30;6.70;;;;;;;;;;6244899;22;19999;-93
2022/01/30 11:43:11;;;;;;;44.47;7.65;;;;;;;;;;6221961;22;20072;-95
2022/01/30 11:45:43;;;;;;;41.15;6.82;;;;;;;;;;6219532;22;20019;-94
2022/01/30 11:51:50;;;;;;;42.03;7.32;;;;;;;;;;6244655;22;20023;-94
2022/01/30 11:54:52;;;;;;;42.65;7.50;;;;;;;;;;6222239;23;20017;-95
2022/01/30 11:57:33;;;;;;;44.80;8.02;;;;;;;;;;6228023;23;20043;-94
2022/01/30 12:00:32;;;;;;;33.33;5.47;;;;;;;;;;6236474;23;20017;-95
2022/01/30 12:03:21;;;;;;;41.95;6.72;;;;;;;;;;6244051;23;20008;-94
2022/01/30 12:05:55;;;;;;;40.00;8.15;;;;;;;;;;6243998;23;20035;-95
2022/01/30 12:08:44;;;;;;;41.88;6.80;;;;;;;;;;6244595;23;20008;-95
2022/01/30 12:11:37;;;;;;;40.78;6.93;;;;;;;;;;6243893;23;20019;-94
2022/01/30 12:14:06;;;;;;;50.53;7.80;;;;;;;;;;6243847;23;20013;-96
2022/01/30 12:16:57;;;;;;;36.92;7.63;;;;;;;;;;6241378;23;20005;-95
2022/01/30 12:19:39;;;;;;;42.22;7.80;;;;;;;;;;6244221;23;20035;-95
2022/01/30 12:22:29;;;;;;;41.92;8.25;;;;;;;;;;6243363;23;20001;-96
2022/01/30 12:25:20;;;;;;;70.38;9.23;;;;;;;;;;6243160;23;20031;-96
2022/01/30 15:41:07;;;;;;;30.80;4.20;;;;;;;;;;6190146;22;20016;31
2022/01/30 15:43:40;;;;;;;36.63;4.88;;;;;;;;;;6244406;23;20035;-95
2022/01/30 15:49:14;;;;;;;43.30;5.22;;;;;;;;;;6243980;23;20021;-94
2022/01/30 15:51:54;;;;;;;34.05;5.95;;;;;;;;;;6215498;23;20008;-94
2022/01/30 15:54:22;;;;;;;34.35;5.28;;;;;;;;;;6243331;23;20012;-95
2022/01/30 15:57:02;;;;;;;35.33;6.07;;;;;;;;;;6243095;23;20016;-94
2022/01/30 15:59:31;;;;;;;41.40;6.00;;;;;;;;;;6243149;23;20010;-95
2022/01/30 16:02:00;;;;;;;44.70;5.72;;;;;;;;;;6243422;23;20014;-93
2022/01/30 16:04:41;;;;;;;38.00;6.20;;;;;;;;;;6220450;23;20024;-94
2022/01/30 16:07:09;;;;;;;41.70;6.57;;;;;;;;;;6243472;23;20024;-95
2022/01/30 16:09:46;;;;;;;58.67;6.80;;;;;;;;;;6243800;23;20009;-94
2022/01/30 16:26:10;;;;;;;31.08;5.13;;;;;;;;;;6244260;23;19999;-94
2022/01/30 16:28:37;;;;;;;32.90;5.35;;;;;;;;;;6243550;23;20021;-95
2022/01/30 16:31:09;;;;;;;38.40;5.80;;;;;;;;;;6243179;23;20019;-95
2022/01/30 16:34:07;;;;;;;42.25;5.95;;;;;;;;;;6243833;23;20015;-94
2022/01/30 16:36:34;;;;;;;45.78;6.43;;;;;;;;;;6243684;23;20018;-96
2022/01/30 16:39:02;;;;;;;34.20;6.50;;;;;;;;;;6243326;23;20012;-93
2022/01/30 16:59:07;;;;;;;31.85;6.80;;;;;;;;;;6243426;23;20060;-94
2022/01/30 17:01:36;;;;;;;37.97;6.20;;;;;;;;;;6218456;23;20008;-94
2022/01/30 17:17:45;;;;;;;39.55;5.55;;;;;;;;;;6243832;23;20077;-93
2022/01/30 17:20:13;;;;;;;41.08;5.22;;;;;;;;;;6243377;23;20015;-92
2022/01/30 17:33:13;;;;;;;51.13;6.80;;;;;;;;;;6243089;23;20028;-92
2022/01/30 17:35:40;;;;;;;37.97;5.63;;;;;;;;;;6242205;23;20013;-92
2022/01/30 17:38:08;;;;;;;45.95;7.10;;;;;;;;;;6242763;23;20084;-94
2022/01/30 17:40:35;;;;;;;43.08;5.72;;;;;;;;;;6219568;23;20028;-93
2022/01/30 17:56:56;;;;;;;32.63;5.72;;;;;;;;;;6214627;23;20047;-92
2022/01/30 17:59:22;;;;;;;47.28;5.93;;;;;;;;;;6214182;23;20009;-91
2022/01/30 18:01:56;;;;;;;40.83;6.45;;;;;;;;;;6214696;23;20031;-92
2022/01/30 18:04:31;;;;;;;37.95;5.82;;;;;;;;;;6214161;23;20013;-94
2022/01/30 18:13:45;;;;;;;39.58;5.60;;;;;;;;;;6215102;23;20013;-93
2022/01/30 18:16:12;;;;;;;46.40;5.68;;;;;;;;;;6213813;23;20029;-93
2022/01/30 18:18:39;;;;;;;31.92;5.70;;;;;;;;;;6214432;23;20035;-92
2022/01/30 18:21:22;;;;;;;35.40;5.45;;;;;;;;;;6214331;23;20041;-92
2022/01/30 18:23:48;;;;;;;44.83;6.35;;;;;;;;;;6214470;23;20009;-90
2022/01/30 18:26:19;;;;;;;51.05;6.35;;;;;;;;;;6214735;23;20032;-92
2022/01/30 18:29:21;;;;;;;43.35;6.05;;;;;;;;;;6214215;23;20013;-93
2022/01/30 18:31:52;;;;;;;35.67;5.43;;;;;;;;;;6238457;23;20013;-92
2022/01/30 18:34:22;;;;;;;45.08;6.75;;;;;;;;;;6238428;23;20028;-92
2022/01/30 18:36:55;;;;;;;32.38;5.38;;;;;;;;;;6213703;23;20028;-93
2022/01/30 18:42:45;;;;;;;44.90;6.45;;;;;;;;;;6221799;23;20059;-93
2022/01/30 18:45:15;;;;;;;53.10;6.88;;;;;;;;;;6243831;23;20013;-93
2022/01/30 18:47:42;;;;;;;41.60;5.15;;;;;;;;;;6244402;23;20008;-92
2022/01/30 19:00:18;;;;;;;44.65;7.57;;;;;;;;;;6245119;23;20015;-92
2022/01/30 19:02:46;;;;;;;36.05;5.85;;;;;;;;;;6244180;23;20008;-93
2022/01/30 19:05:13;;;;;;;57.17;7.10;;;;;;;;;;6244383;23;20009;-92
2022/01/30 19:28:11;;;;;;;44.17;6.47;;;;;;;;;;6244599;23;20043;-93
2022/01/30 19:30:38;;;;;;;52.67;6.82;;;;;;;;;;6243865;23;20032;-94
2022/01/30 19:33:09;;;;;;;56.53;8.10;;;;;;;;;;6244048;23;20012;-92
2022/01/30 19:35:39;;;;;;;52.67;7.63;;;;;;;;;;6243649;23;20020;-92
2022/01/30 19:44:55;;;;;;;38.30;6.50;;;;;;;;;;6240404;23;20015;-91
2022/01/30 19:47:26;;;;;;;50.40;6.85;;;;;;;;;;6243793;23;20004;-92
2022/01/30 20:00:32;;;;;;;49.70;8.40;;;;;;;;;;6244648;23;19995;-95
2022/01/30 20:03:18;;;;;;;53.72;10.32;;;;;;;;;;6242939;23;20000;-96
2022/01/30 22:41:55;;;;;;;47.85;7.38;;;;;;;;;;6243886;22;20025;-94
2022/01/30 22:44:22;;;;;;;42.25;6.15;;;;;;;;;;6219665;22;20020;-95
2022/01/30 22:46:50;;;;;;;40.78;8.40;;;;;;;;;;6219717;22;20024;-95
2022/01/30 23:00:01;;;;;;;36.97;6.07;;;;;;;;;;6244683;22;20034;-93
2022/01/30 23:06:26;;;;;;;46.95;6.57;;;;;;;;;;6244838;22;20023;-93
2022/01/30 23:08:52;;;;;;;34.10;5.88;;;;;;;;;;6219242;22;20012;-93
2022/01/30 23:11:19;;;;;;;49.60;7.70;;;;;;;;;;6218933;22;20012;-94
2022/01/30 23:13:50;;;;;;;48.40;6.53;;;;;;;;;;6219683;22;20009;-93
2022/01/30 23:16:43;;;;;;;37.97;6.32;;;;;;;;;;6219029;22;20012;-93
2022/01/30 23:19:10;;;;;;;41.70;5.75;;;;;;;;;;6219239;22;20008;-94
2022/01/30 23:21:37;;;;;;;46.40;5.82;;;;;;;;;;6218912;22;20939;-94
2022/01/30 23:31:02;;;;;;;44.22;5.15;;;;;;;;;;6244587;22;20003;-95
2022/01/30 23:33:29;;;;;;;41.33;6.78;;;;;;;;;;6219026;22;20032;-95
2022/01/30 23:35:56;;;;;;;44.55;6.22;;;;;;;;;;6218575;22;20023;-93
2022/01/30 23:38:28;;;;;;;42.13;6.43;;;;;;;;;;6219766;22;20008;-95
2022/01/30 23:44:21;;;;;;;45.72;8.23;;;;;;;;;;6184159;23;20016;-94
2022/01/30 23:47:14;;;;;;;47.17;6.25;;;;;;;;;;6183437;23;20009;-94
2022/01/30 23:49:41;;;;;;;50.63;6.68;;;;;;;;;;6183771;23;20032;-94
2022/01/30 23:52:08;;;;;;;36.92;6.07;;;;;;;;;;6183668;23;20005;-94
2022/01/30 23:54:35;;;;;;;46.03;6.57;;;;;;;;;;6183577;23;20028;-95
